Time;durP1;ratioP1;P1;durP2;ratioP2;P2;SDS_P1;SDS_P2;PMS_P1;PMS_P2;Temp;Humidity;BMP_temperature;BMP_pressure;BME280_temperature;BME280_humidity;BME280_pressure;Samples;Min_cycle;Max_cycle;Signal;HPM_P1;HPM_P2
2022/05/30 03:46:34;;;;;;;1.57;1.47;;;;;;;20.15;57.18;96683.94;6151850;23;20257;-93
2022/05/30 03:49:02;;;;;;;2.03;1.53;;;;;;;19.79;57.49;96625.31;6078476;23;20183;-92
2022/05/30 03:51:28;;;;;;;1.63;1.50;;;;;;;19.87;57.15;96654.41;6126106;23;20163;-91
2022/05/30 03:53:55;;;;;;;1.50;1.40;;;;;;;20.94;57.23;96814.94;6078707;23;20174;-93
2022/05/30 03:56:22;;;;;;;2.13;1.70;;;;;;;19.96;57.13;96644.41;6078638;23;20155;-93
2022/05/30 03:58:48;;;;;;;2.10;1.50;;;;;;;19.72;57.31;96609.00;6079156;23;20191;-93
2022/05/30 04:01:15;;;;;;;2.10;1.60;;;;;;;18.60;57.08;96420.50;6078868;23;20163;-93
2022/05/30 04:03:42;;;;;;;2.00;1.30;;;;;;;19.42;57.20;96543.81;6102358;23;20164;-93
2022/05/30 04:06:09;;;;;;;1.40;1.30;;;;;;;19.26;57.27;96519.63;6079184;23;20178;-92
2022/05/30 04:08:36;;;;;;;1.60;1.50;;;;;;;20.54;57.21;96751.97;6078795;23;20163;-92
2022/05/30 04:11:02;;;;;;;1.57;1.33;;;;;;;20.17;56.90;96695.03;6079621;23;20186;-93
2022/05/30 04:13:29;;;;;;;2.27;1.60;;;;;;;19.80;57.04;96611.72;6077073;23;20171;-93
2022/05/30 04:15:56;;;;;;;1.50;1.40;;;;;;;20.16;57.21;96668.66;6078367;23;20155;-93
2022/05/30 04:18:30;;;;;;;1.53;1.43;;;;;;;20.59;57.22;96749.53;6105224;23;20202;-92
2022/05/30 04:20:57;;;;;;;1.40;1.30;;;;;;;20.54;57.08;96731.56;6102916;23;20159;-92
2022/05/30 04:23:24;;;;;;;2.50;1.80;;;;;;;19.78;57.27;96606.59;6126655;23;20155;-93
2022/05/30 04:25:50;;;;;;;2.13;1.67;;;;;;;19.86;57.57;96629.72;6078512;23;20183;-93
2022/05/30 04:28:17;;;;;;;1.60;1.50;;;;;;;19.74;57.08;96601.41;6079084;23;20167;-92
2022/05/30 04:30:44;;;;;;;1.63;1.53;;;;;;;20.96;57.76;96824.38;6078776;23;20162;-92
2022/05/30 04:33:10;;;;;;;1.40;1.30;;;;;;;20.23;57.18;96688.38;6078872;23;20279;-93
2022/05/30 04:35:37;;;;;;;1.73;1.60;;;;;;;19.91;57.28;96648.53;6078502;23;20183;-93
2022/05/30 04:38:04;;;;;;;1.53;1.40;;;;;;;19.96;56.85;96640.13;6078424;23;20179;-93
2022/05/30 04:40:31;;;;;;;2.27;1.50;;;;;;;20.21;57.53;96704.47;6079094;23;20171;-92
2022/05/30 04:42:58;;;;;;;1.57;1.47;;;;;;;20.53;56.94;96747.72;6079178;23;20468;-92
2022/05/30 04:45:25;;;;;;;2.10;1.43;;;;;;;20.43;57.11;96727.91;6080502;23;20155;-92
2022/05/30 04:47:52;;;;;;;1.33;1.23;;;;;;;19.62;57.07;96601.13;6080536;23;20492;-94
2022/05/30 04:50:20;;;;;;;1.70;1.60;;;;;;;19.99;56.89;96675.91;6079945;23;20214;-92
2022/05/30 04:58:11;;;;;;;6.27;4.70;;;;;;;18.71;53.37;96457.25;6152304;23;20222;-93
2022/05/30 05:14:04;;;;;;;11.83;8.70;;;;;;;19.09;50.41;96542.97;6151892;23;20279;-94
2022/05/30 05:40:42;;;;;;;8.50;6.07;;;;;;;20.07;54.61;96721.16;6125972;23;20200;-91
2022/05/30 05:43:09;;;;;;;9.77;6.60;;;;;;;19.33;54.62;96615.75;6096914;23;20472;-90
2022/05/30 05:45:41;;;;;;;14.23;6.47;;;;;;;19.47;54.33;96639.00;6122859;23;20171;-93
2022/05/30 05:48:08;;;;;;;10.43;6.17;;;;;;;20.86;54.71;96862.44;6120622;23;20199;-92
2022/05/30 05:50:39;;;;;;;9.70;6.77;;;;;;;19.79;55.16;96684.81;6096283;23;20186;-89
2022/05/30 05:53:06;;;;;;;12.13;6.07;;;;;;;21.18;54.81;96916.00;6120656;23;20159;-92
2022/05/30 05:55:37;;;;;;;8.43;5.80;;;;;;;21.31;55.22;96934.97;6097885;23;20172;-92
2022/05/30 05:58:05;;;;;;;10.30;6.47;;;;;;;19.33;55.20;96605.56;6073307;23;20187;-91
2022/05/30 06:00:33;;;;;;;7.93;5.77;;;;;;;19.71;55.35;96665.06;6094685;23;20196;-92
2022/05/30 06:03:01;;;;;;;12.90;6.10;;;;;;;20.90;55.29;96854.88;6072694;23;20734;-92
2022/05/30 06:05:30;;;;;;;9.87;5.90;;;;;;;19.94;55.55;96694.50;6097672;23;20175;-93
2022/05/30 06:08:00;;;;;;;9.17;5.67;;;;;;;19.47;55.36;96611.00;6075534;23;20195;-93
2022/05/30 06:10:27;;;;;;;9.40;6.37;;;;;;;20.86;55.62;96857.34;6098774;23;20196;-91
2022/05/30 06:12:53;;;;;;;7.27;5.60;;;;;;;18.94;55.50;96517.16;6094806;23;20156;-91
2022/05/30 06:15:20;;;;;;;13.27;5.53;;;;;;;20.58;55.42;96817.59;6091242;23;20184;-90
2022/05/30 07:41:30;;;;;;;9.47;6.70;;;;;;;16.09;55.15;96056.81;6155957;23;20702;-89
2022/05/30 08:25:36;;;;;;;8.27;5.50;;;;;;;17.21;55.60;96256.88;6139967;23;20186;-88
2022/05/30 10:32:50;;;;;;;3.87;3.17;;;;;;;21.36;56.64;96928.28;6125189;23;20215;-88
2022/05/30 11:36:00;;;;;;;11.33;5.27;;;;;;;21.37;57.56;96925.75;6154662;23;20335;-92
2022/05/30 11:38:46;;;;;;;16.47;5.07;;;;;;;21.39;57.93;96928.34;6152378;23;20178;-94
2022/05/30 11:41:36;;;;;;;16.83;5.27;;;;;;;21.40;57.56;96935.16;6153483;23;20226;-93
2022/05/30 11:44:28;;;;;;;12.50;4.87;;;;;;;21.40;57.36;96930.94;6128406;23;20147;-92
2022/05/30 11:47:14;;;;;;;12.40;5.63;;;;;;;21.40;57.37;96965.84;6128662;23;20151;-92
2022/05/30 11:50:27;;;;;;;18.63;6.87;;;;;;;21.41;57.42;96937.75;6126698;23;20155;-94
2022/05/30 11:53:44;;;;;;;17.73;6.50;;;;;;;21.43;57.42;96930.13;6126675;23;20190;-94
2022/05/30 12:10:31;;;;;;;20.17;6.77;;;;;;;17.05;57.32;96201.44;6142788;23;20190;-94
2022/05/30 12:24:49;;;;;;;17.87;6.87;;;;;;;21.42;57.46;96930.97;6134062;23;20202;-91
2022/05/30 12:49:03;;;;;;;18.17;6.73;;;;;;;21.38;57.21;96939.41;6127744;23;20190;-92
2022/05/30 12:56:49;;;;;;;14.63;7.00;;;;;;;21.40;57.55;96942.84;6154159;23;20195;-90
2022/05/30 13:20:54;;;;;;;14.40;6.17;;;;;;;16.78;56.81;96177.06;6155332;23;20186;-93
2022/05/30 13:23:37;;;;;;;10.47;5.80;;;;;;;16.34;56.87;96140.28;6065004;23;20222;-93
2022/05/30 13:26:21;;;;;;;9.83;5.60;;;;;;;20.24;57.17;96746.22;6092198;23;20185;-94
2022/05/30 13:48:29;;;;;;;11.93;6.13;;;;;;;17.36;57.08;96279.25;6155436;23;20167;-93
2022/05/30 13:56:45;;;;;;;8.07;5.07;;;;;;;21.42;57.05;96974.41;6152433;23;20209;-94
2022/05/30 14:12:51;;;;;;;9.33;5.07;;;;;;;18.05;57.15;96396.25;6154774;23;20194;-94
2022/05/30 14:17:56;;;;;;;8.00;4.63;;;;;;;17.11;57.12;96259.13;6138290;23;20182;-92
2022/05/30 14:20:30;;;;;;;7.87;4.60;;;;;;;20.02;57.09;96723.59;6127003;23;20230;-92
2022/05/30 14:25:48;;;;;;;7.87;4.70;;;;;;;17.44;57.40;96272.72;6154656;23;20173;-94
2022/05/30 14:28:49;;;;;;;7.90;4.70;;;;;;;17.91;57.19;96402.66;6093984;23;20179;-94
2022/05/30 14:34:25;;;;;;;7.93;4.43;;;;;;;19.17;57.09;96577.13;6123315;23;20230;-91
2022/05/30 14:37:28;;;;;;;8.23;4.80;;;;;;;17.74;57.15;96359.88;6137019;23;20158;-94
2022/05/30 14:46:17;;;;;;;8.20;4.90;;;;;;;15.97;56.82;96048.91;6147903;23;20167;-94
2022/05/30 14:54:52;;;;;;;8.03;4.90;;;;;;;19.71;57.04;96728.78;6133156;23;20186;-91
2022/05/30 14:57:25;;;;;;;6.00;4.50;;;;;;;21.40;57.29;96963.28;6106005;23;20159;-94
2022/05/30 14:59:52;;;;;;;9.47;5.00;;;;;;;16.46;56.99;96130.53;6108399;23;20201;-93
2022/05/30 15:10:28;;;;;;;7.50;4.07;;;;;;;19.64;57.37;96722.72;6148606;23;20186;-93
2022/05/30 15:12:55;;;;;;;6.87;4.20;;;;;;;17.35;56.83;96320.72;6105545;23;20246;-89
2022/05/30 15:21:04;;;;;;;8.03;4.70;;;;;;;16.77;57.16;96210.81;6177794;23;20170;-94
2022/05/30 15:23:52;;;;;;;8.53;4.37;;;;;;;20.04;57.35;96803.53;6125532;23;20177;-93
2022/05/30 15:28:54;;;;;;;8.50;4.73;;;;;;;16.62;57.12;96160.56;6134905;23;20158;-93
2022/05/30 15:36:53;;;;;;;5.43;3.50;;;;;;;18.60;56.95;96510.44;6150622;23;20192;-93
2022/05/30 15:39:20;;;;;;;6.47;3.73;;;;;;;16.80;57.04;96171.19;6122699;23;20206;-94
2022/05/30 15:44:28;;;;;;;6.50;4.00;;;;;;;18.60;57.13;96494.28;6178231;23;20158;-94
2022/05/30 15:47:19;;;;;;;6.00;3.63;;;;;;;18.29;56.76;96456.19;6132143;23;20183;-93
2022/05/30 15:58:02;;;;;;;6.37;3.57;;;;;;;18.84;57.35;96567.00;6155814;23;20150;-94
2022/05/30 16:03:24;;;;;;;5.83;3.50;;;;;;;19.45;57.29;96679.75;6172721;23;20170;-93
2022/05/30 16:06:05;;;;;;;5.40;3.67;;;;;;;18.35;57.37;96505.50;6119946;23;20161;-93
2022/05/30 16:09:00;;;;;;;5.00;3.93;;;;;;;16.63;57.30;96199.44;6112714;23;20146;-94
2022/05/30 16:11:58;;;;;;;6.10;3.30;;;;;;;18.49;57.08;96494.03;6166589;23;20147;-94
2022/05/30 16:17:20;;;;;;;4.97;3.53;;;;;;;18.18;57.41;96430.47;6155725;23;20162;-94
2022/05/30 16:22:46;;;;;;;6.73;4.03;;;;;;;20.35;57.34;96851.06;6169850;23;20164;-94
2022/05/30 16:33:26;;;;;;;4.90;3.43;;;;;;;18.24;57.21;96491.66;6155267;23;20246;-93
2022/05/30 16:36:08;;;;;;;5.90;3.30;;;;;;;20.05;57.81;96771.25;6106130;23;20194;-89
2022/05/30 16:38:35;;;;;;;3.97;3.17;;;;;;;18.14;57.72;96464.25;6100537;23;20988;-90
2022/05/30 16:49:32;;;;;;;6.20;3.60;;;;;;;16.37;56.90;96142.91;6155250;23;20151;-95
2022/05/30 16:54:56;;;;;;;5.30;3.30;;;;;;;18.25;57.07;96460.31;6155195;23;20214;-94
2022/05/30 16:57:40;;;;;;;6.13;3.60;;;;;;;21.35;57.33;96986.19;6091911;23;20154;-95
2022/05/30 17:08:53;;;;;;;4.20;3.30;;;;;;;21.38;57.59;97060.38;6158414;23;20250;-95
2022/05/30 17:17:03;;;;;;;5.07;3.27;;;;;;;18.55;57.31;96501.81;6163020;23;20185;-94
2022/05/30 17:19:30;;;;;;;7.27;3.50;;;;;;;17.84;57.14;96449.09;6102721;23;20194;-92
2022/05/30 17:21:57;;;;;;;5.47;3.13;;;;;;;19.87;57.34;96756.38;6082636;23;20155;-94
2022/05/30 17:24:26;;;;;;;4.33;2.80;;;;;;;16.25;57.28;96112.16;6110060;23;20183;-94
2022/05/30 17:40:25;;;;;;;4.77;3.23;;;;;;;15.94;57.08;96132.41;6155852;23;20198;-93
2022/05/30 17:56:20;;;;;;;5.33;3.20;;;;;;;18.25;57.35;96511.19;6178283;23;20190;-93
2022/05/30 17:58:51;;;;;;;4.07;2.90;;;;;;;19.92;57.38;96846.59;6137204;23;20175;-92
2022/05/30 18:01:20;;;;;;;6.30;3.20;;;;;;;19.92;57.83;96827.06;6134298;23;20230;-93
2022/05/30 18:03:47;;;;;;;6.07;3.40;;;;;;;21.36;57.55;97030.53;6109999;23;20194;-91
2022/05/30 18:06:30;;;;;;;5.87;3.23;;;;;;;20.44;57.67;96893.00;6156304;23;20185;-93
2022/05/30 18:09:29;;;;;;;5.33;3.40;;;;;;;17.97;57.55;96519.75;6110404;23;20208;-91
2022/05/30 18:12:17;;;;;;;4.53;2.90;;;;;;;18.18;57.50;96488.97;6172532;23;20186;-93
2022/05/30 18:15:02;;;;;;;6.13;3.03;;;;;;;21.37;57.87;97045.91;6157975;23;20143;-92
2022/05/30 18:18:03;;;;;;;4.83;3.00;;;;;;;17.94;57.79;96511.16;6183456;23;20178;-91
2022/05/30 18:20:33;;;;;;;5.40;3.10;;;;;;;20.01;57.59;96823.84;6132914;23;20190;-91
2022/05/30 18:23:19;;;;;;;5.00;2.83;;;;;;;20.41;57.72;96897.16;6102817;23;20147;-92
2022/05/30 18:25:46;;;;;;;4.90;2.87;;;;;;;19.83;57.66;96792.81;6126556;23;20154;-93
2022/05/30 18:28:15;;;;;;;4.73;2.90;;;;;;;19.64;57.75;96763.50;6127170;23;20207;-92
2022/05/30 18:30:59;;;;;;;3.20;2.90;;;;;;;20.01;57.76;96821.31;6076357;23;20247;-93
2022/05/30 18:33:32;;;;;;;4.90;3.00;;;;;;;21.35;57.79;97047.53;6122964;23;20152;-93
2022/05/30 18:36:18;;;;;;;4.10;2.80;;;;;;;20.17;58.01;96851.50;6097466;23;20160;-92
2022/05/30 18:39:23;;;;;;;4.23;2.80;;;;;;;21.36;57.83;97056.09;6121477;23;20159;-93
2022/05/30 18:42:41;;;;;;;5.30;3.20;;;;;;;21.36;57.96;97061.19;6122954;23;20239;-92
2022/05/30 18:45:16;;;;;;;6.23;2.87;;;;;;;18.89;57.88;96653.69;6090235;23;20191;-94
2022/05/30 18:48:07;;;;;;;4.77;2.97;;;;;;;21.37;57.76;97065.47;6106739;23;20150;-94
2022/05/30 18:50:36;;;;;;;4.90;2.90;;;;;;;18.77;57.59;96635.53;6106961;23;20148;-93
2022/05/30 18:53:05;;;;;;;6.67;2.90;;;;;;;18.93;57.87;96660.56;6081971;23;20147;-94
2022/05/30 18:55:32;;;;;;;4.20;2.83;;;;;;;19.43;58.01;96762.97;6127928;23;20151;-94
2022/05/30 18:58:09;;;;;;;5.13;2.73;;;;;;;19.99;57.90;96846.78;6127781;23;20163;-93
2022/05/30 19:00:36;;;;;;;4.40;3.07;;;;;;;20.96;58.12;97017.69;6103998;23;20191;-94
2022/05/30 19:03:09;;;;;;;3.67;2.70;;;;;;;19.69;57.24;96800.13;6126997;23;20172;-94
2022/05/30 19:05:36;;;;;;;3.40;2.57;;;;;;;18.96;56.80;96668.28;6080257;23;20195;-94
2022/05/30 19:08:03;;;;;;;2.70;2.17;;;;;;;20.00;56.81;96862.94;6102807;23;20159;-94
2022/05/30 19:10:31;;;;;;;3.10;2.40;;;;;;;20.66;56.81;96955.63;6079051;23;20211;-93
2022/05/30 19:13:05;;;;;;;4.17;2.80;;;;;;;21.37;56.85;97094.47;6102910;23;20155;-92
2022/05/30 19:18:26;;;;;;;5.07;3.03;;;;;;;20.95;56.78;97021.91;6128649;23;20158;-93
2022/05/30 19:20:53;;;;;;;2.33;2.13;;;;;;;20.18;57.11;96904.25;6101965;23;20198;-94
2022/05/30 19:34:29;;;;;;;5.20;2.63;;;;;;;20.57;56.92;96971.56;6133029;23;20359;-93
2022/05/30 19:36:55;;;;;;;5.27;2.50;;;;;;;19.65;57.10;96803.44;6102051;23;20233;-92
2022/05/30 19:39:22;;;;;;;4.20;2.70;;;;;;;19.88;57.16;96853.31;6125445;23;20175;-93
2022/05/30 19:41:49;;;;;;;3.43;2.30;;;;;;;20.48;57.20;96947.50;6150222;23;20205;-91
2022/05/30 19:44:19;;;;;;;5.13;2.57;;;;;;;20.51;57.30;96989.28;6149633;23;20170;-92
2022/05/30 19:46:45;;;;;;;5.23;2.43;;;;;;;20.19;57.05;96913.63;6077006;23;20183;-93
2022/05/30 19:49:13;;;;;;;6.57;2.47;;;;;;;20.59;57.27;96985.25;6100999;23;20187;-92
2022/05/30 19:51:40;;;;;;;4.67;2.57;;;;;;;20.44;57.14;96961.91;6101200;23;20171;-92
2022/05/30 19:54:07;;;;;;;4.90;2.97;;;;;;;20.69;57.08;97025.50;6101715;23;20147;-92
2022/05/30 19:56:35;;;;;;;3.87;2.57;;;;;;;19.90;57.13;96891.59;6125452;23;20340;-93
2022/05/30 19:59:02;;;;;;;4.73;2.70;;;;;;;21.36;57.17;97122.53;6077502;23;20206;-92
2022/05/30 20:01:30;;;;;;;4.17;2.47;;;;;;;19.40;57.21;96797.69;6101798;23;20206;-92
2022/05/30 20:03:57;;;;;;;4.20;2.60;;;;;;;20.45;57.21;96976.38;6145932;23;20166;-92
2022/05/30 20:06:25;;;;;;;5.43;2.60;;;;;;;20.02;57.15;96901.25;6125456;23;20198;-92
2022/05/30 20:08:52;;;;;;;5.43;2.50;;;;;;;20.13;57.29;96925.38;6102753;23;20171;-91
2022/05/30 20:11:19;;;;;;;4.50;2.50;;;;;;;20.56;57.25;96997.94;6125873;23;20183;-92
2022/05/30 20:13:45;;;;;;;3.27;2.33;;;;;;;19.86;57.14;96899.97;6150428;23;20198;-92
2022/05/30 20:16:20;;;;;;;3.90;2.40;;;;;;;19.96;57.35;96899.41;6149836;23;20167;-91
2022/05/30 20:18:48;;;;;;;3.33;2.50;;;;;;;20.51;57.41;96993.53;6101284;23;20165;-92
2022/05/30 20:21:14;;;;;;;2.50;2.17;;;;;;;20.15;57.52;96927.13;6150153;23;20279;-92
2022/05/30 20:23:41;;;;;;;4.27;2.40;;;;;;;20.34;57.59;96965.03;6151166;23;20159;-93
2022/05/30 20:26:08;;;;;;;4.37;2.43;;;;;;;20.02;57.30;96904.66;6125685;23;20158;-92
2022/05/30 20:28:35;;;;;;;3.60;2.40;;;;;;;20.42;57.75;96981.41;6126824;23;20167;-92
2022/05/30 20:31:06;;;;;;;5.00;2.40;;;;;;;20.30;57.36;96960.69;6104754;23;20167;-92
2022/05/30 20:33:33;;;;;;;6.00;2.50;;;;;;;20.95;57.34;97073.00;6151214;23;20163;-92
2022/05/30 20:35:59;;;;;;;4.83;2.70;;;;;;;20.60;57.57;97012.50;6177731;23;20167;-92
2022/05/30 20:38:26;;;;;;;4.73;2.47;;;;;;;20.51;57.41;97003.75;6180879;23;20162;-92
2022/05/30 20:43:38;;;;;;;3.20;2.10;;;;;;;20.27;57.30;96986.13;6138139;23;20197;-92
2022/05/30 20:46:05;;;;;;;3.67;2.30;;;;;;;20.56;57.15;97020.91;6180744;23;20190;-92
2022/05/30 20:48:32;;;;;;;3.53;2.27;;;;;;;20.23;57.26;96963.06;6131499;23;20182;-92
2022/05/30 20:50:58;;;;;;;2.70;2.30;;;;;;;20.20;57.22;96974.06;6131357;23;20189;-92
2022/05/30 20:53:30;;;;;;;4.07;2.23;;;;;;;20.94;57.31;97090.81;6132860;23;20143;-92
2022/05/30 20:55:57;;;;;;;3.60;2.27;;;;;;;20.52;57.53;97024.19;6155400;23;20325;-91
2022/05/30 20:58:23;;;;;;;5.67;2.00;;;;;;;20.66;57.42;97053.50;6157168;23;20166;-92
2022/05/30 21:00:51;;;;;;;3.03;2.10;;;;;;;20.55;57.61;97031.09;6182377;23;20202;-93
2022/05/30 21:03:18;;;;;;;4.33;2.17;;;;;;;20.91;57.53;97093.28;6182469;23;20165;-92
2022/05/30 21:05:44;;;;;;;3.47;2.43;;;;;;;20.50;57.51;97030.97;6182210;23;20166;-93
2022/05/30 21:08:12;;;;;;;4.57;2.30;;;;;;;20.40;57.53;97011.13;6157518;23;20193;-92
2022/05/30 21:10:38;;;;;;;2.90;2.20;;;;;;;20.28;57.25;96977.63;6157296;23;20171;-93
2022/05/30 21:13:05;;;;;;;4.07;2.07;;;;;;;21.28;57.32;97150.47;6183172;23;20158;-92
2022/05/30 21:15:32;;;;;;;2.73;2.20;;;;;;;20.59;57.34;97036.31;6178962;23;20183;-92
2022/05/30 21:18:10;;;;;;;2.70;2.10;;;;;;;20.92;57.43;97100.13;6156707;23;20162;-92
2022/05/30 21:20:38;;;;;;;2.83;2.07;;;;;;;20.53;57.29;97031.06;6183148;23;20194;-92
2022/05/30 21:23:07;;;;;;;2.70;2.20;;;;;;;20.27;57.33;96981.03;6157797;23;20214;-92
2022/05/30 21:25:35;;;;;;;2.83;2.20;;;;;;;20.38;57.47;97009.38;6133481;23;20194;-92
2022/05/30 21:28:02;;;;;;;2.37;2.10;;;;;;;20.55;57.54;97025.97;6133057;23;20209;-92
2022/05/30 21:30:30;;;;;;;3.60;2.17;;;;;;;20.54;57.48;97022.56;6133481;23;20213;-93
2022/05/30 21:33:01;;;;;;;4.20;2.50;;;;;;;20.16;57.42;96956.06;6157893;23;20182;-91
2022/05/30 21:35:29;;;;;;;3.73;1.90;;;;;;;20.53;57.42;97015.72;6136557;23;20167;-92
2022/05/30 21:37:56;;;;;;;5.93;2.30;;;;;;;20.83;57.34;97090.53;6152869;23;20163;-92
2022/05/30 21:40:25;;;;;;;3.17;2.03;;;;;;;20.26;57.38;96986.09;6103816;23;20175;-92
2022/05/30 21:42:52;;;;;;;2.17;1.97;;;;;;;19.82;57.60;96906.72;6104353;23;20171;-92
2022/05/30 21:45:18;;;;;;;3.67;2.40;;;;;;;20.08;57.46;96963.50;6152622;23;20171;-92
2022/05/30 21:47:46;;;;;;;3.03;2.10;;;;;;;20.55;57.21;97064.28;6127659;23;20177;-92
2022/05/30 21:50:15;;;;;;;2.70;2.00;;;;;;;20.17;57.61;96988.41;6103939;23;20175;-92
2022/05/30 21:52:42;;;;;;;5.07;2.30;;;;;;;20.85;57.49;97099.13;6127855;23;20163;-92
2022/05/30 21:55:10;;;;;;;2.97;1.67;;;;;;;20.91;57.38;97118.84;6127792;23;20158;-92
2022/05/30 21:57:55;;;;;;;2.77;2.07;;;;;;;20.87;57.63;97099.16;6128081;23;20187;-93
2022/05/30 22:00:33;;;;;;;2.40;2.03;;;;;;;21.25;57.55;97163.19;6131682;23;20223;-92
2022/05/30 22:03:03;;;;;;;3.03;2.20;;;;;;;20.46;57.36;97041.06;6152425;23;20182;-91
2022/05/30 22:05:31;;;;;;;2.23;2.03;;;;;;;20.59;57.87;97053.31;6104667;23;20175;-92
2022/05/30 22:07:58;;;;;;;3.20;2.40;;;;;;;19.84;57.54;96924.59;6103847;23;20163;-92
2022/05/30 22:10:25;;;;;;;2.23;2.03;;;;;;;20.90;57.53;97124.78;6152932;23;20197;-92
2022/05/30 22:12:52;;;;;;;2.40;2.03;;;;;;;20.11;57.47;96980.56;6104440;23;20226;-92
2022/05/30 22:15:19;;;;;;;2.00;1.80;;;;;;;20.10;57.56;96979.69;6152025;23;20160;-92
2022/05/30 22:17:45;;;;;;;2.50;1.93;;;;;;;21.26;57.62;97181.94;6127745;23;20159;-92
2022/05/30 22:20:23;;;;;;;1.83;1.50;;;;;;;19.78;57.42;96940.56;6152576;23;20256;-92
2022/05/30 22:22:53;;;;;;;2.43;1.90;;;;;;;20.12;57.31;96980.59;6104563;23;20147;-92
2022/05/30 22:25:23;;;;;;;2.67;2.10;;;;;;;20.59;57.86;97072.06;6127926;23;20178;-92
2022/05/30 22:27:50;;;;;;;2.57;1.90;;;;;;;19.53;57.25;96877.03;6103744;23;20148;-92
2022/05/30 22:30:20;;;;;;;2.07;1.90;;;;;;;20.91;57.54;97123.94;6152940;23;20190;-92
2022/05/30 22:32:47;;;;;;;2.40;1.73;;;;;;;20.47;57.48;97058.97;6104295;23;20158;-92
2022/05/30 22:35:14;;;;;;;2.23;1.90;;;;;;;20.50;57.58;97061.59;6145264;23;20173;-92
2022/05/30 22:37:41;;;;;;;2.20;2.00;;;;;;;19.92;57.75;96958.78;6132244;23;20199;-92
2022/05/30 22:40:14;;;;;;;3.20;1.97;;;;;;;20.07;57.58;96992.34;6157320;23;20194;-93
2022/05/30 22:42:41;;;;;;;2.17;1.90;;;;;;;21.18;57.68;97189.41;6156639;23;20182;-92
2022/05/30 22:45:08;;;;;;;2.73;1.93;;;;;;;21.23;57.65;97192.09;6156729;23;20158;-93
2022/05/30 22:47:35;;;;;;;2.53;2.10;;;;;;;19.42;57.56;96883.50;6156898;23;20166;-92
2022/05/30 22:50:06;;;;;;;2.67;2.10;;;;;;;20.63;57.72;97103.66;6181983;23;20161;-92
2022/05/30 22:52:33;;;;;;;2.40;1.90;;;;;;;20.27;57.64;97026.94;6109887;23;20416;-92
2022/05/30 22:55:00;;;;;;;2.03;1.87;;;;;;;20.31;57.77;97033.00;6131901;23;20169;-92
2022/05/30 22:57:27;;;;;;;2.20;2.00;;;;;;;19.72;57.61;96919.19;6157018;23;20158;-92
2022/05/30 22:59:54;;;;;;;4.37;2.10;;;;;;;20.35;57.54;97027.16;6181816;23;20158;-92
2022/05/30 23:02:21;;;;;;;1.87;1.77;;;;;;;20.25;57.52;97015.00;6156794;23;20174;-93
2022/05/30 23:04:47;;;;;;;2.73;2.33;;;;;;;20.70;57.64;97100.41;6132237;23;20162;-92
2022/05/30 23:07:14;;;;;;;1.80;1.60;;;;;;;19.93;57.19;96971.59;6156375;23;20175;-92
2022/05/30 23:09:41;;;;;;;2.20;2.00;;;;;;;19.53;57.75;96882.13;6156749;23;20147;-92
2022/05/30 23:12:08;;;;;;;1.83;1.73;;;;;;;20.81;57.82;97094.75;6156882;23;20186;-91
2022/05/30 23:14:34;;;;;;;2.77;1.87;;;;;;;20.10;57.49;96973.75;6181553;23;20181;-92
2022/05/30 23:17:12;;;;;;;2.07;1.93;;;;;;;20.79;57.57;97100.66;6156612;23;20163;-91
2022/05/30 23:19:41;;;;;;;2.17;1.80;;;;;;;20.51;57.34;97047.13;6132085;23;20151;-92
2022/05/30 23:22:08;;;;;;;2.43;1.87;;;;;;;20.66;57.72;97068.81;6132736;23;20194;-92
2022/05/30 23:24:34;;;;;;;1.80;1.70;;;;;;;20.21;57.42;97000.41;6155738;23;20159;-92
2022/05/30 23:27:02;;;;;;;1.77;1.67;;;;;;;20.05;57.63;96957.44;6182041;23;20173;-92
2022/05/30 23:29:28;;;;;;;2.27;1.80;;;;;;;19.68;57.62;96894.41;6132562;23;20147;-93
2022/05/30 23:31:56;;;;;;;2.40;1.80;;;;;;;19.85;57.47;96926.31;6181447;23;20175;-92
2022/05/30 23:34:23;;;;;;;2.13;1.90;;;;;;;20.55;57.79;97059.16;6181201;23;20205;-92
2022/05/30 23:36:50;;;;;;;1.73;1.60;;;;;;;20.69;57.80;97085.94;6132426;23;20218;-92
2022/05/30 23:39:17;;;;;;;2.40;1.83;;;;;;;20.43;57.59;97012.91;6156503;23;20147;-92
2022/05/30 23:44:35;;;;;;;1.60;1.50;;;;;;;20.09;57.91;96955.00;6181455;23;20157;-92
2022/05/30 23:47:06;;;;;;;2.20;2.00;;;;;;;19.88;57.26;96923.84;6134708;23;20190;-92
2022/05/30 23:49:33;;;;;;;2.30;1.87;;;;;;;20.89;57.53;97100.03;6156411;23;20182;-92
2022/05/30 23:52:00;;;;;;;1.73;1.63;;;;;;;20.49;57.54;97020.72;6131815;23;20182;-92
2022/05/30 23:54:27;;;;;;;2.17;1.90;;;;;;;20.57;57.61;97032.00;6131578;23;20159;-93
2022/05/30 23:56:54;;;;;;;1.67;1.57;;;;;;;20.69;57.48;97051.03;6132347;23;20174;-92
2022/05/30 23:59:20;;;;;;;2.77;1.90;;;;;;;20.10;57.45;96949.06;6132020;23;20158;-92
